sensor_id;sensor_type;location;lat;lon;timestamp;pressure;altitude;pressure_sealevel;temperature;humidity
51239;BME280;38154;47.548;18.828;2023-02-12T00:00:05;100003.34;;;2.56;100.00
51239;BME280;38154;47.548;18.828;2023-02-12T00:02:32;100008.88;;;2.47;100.00
51239;BME280;38154;47.548;18.828;2023-02-12T00:04:58;100003.22;;;2.38;100.00
51239;BME280;38154;47.548;18.828;2023-02-12T00:07:24;99993.59;;;2.34;100.00
51239;BME280;38154;47.548;18.828;2023-02-12T00:09:50;100009.38;;;2.40;100.00
51239;BME280;38154;47.548;18.828;2023-02-12T00:12:16;100013.87;;;2.44;100.00
51239;BME280;38154;47.548;18.828;2023-02-12T00:14:42;100013.06;;;2.45;100.00
51239;BME280;38154;47.548;18.828;2023-02-12T00:17:08;100017.41;;;2.46;100.00
51239;BME280;38154;47.548;18.828;2023-02-12T00:19:34;100028.53;;;2.62;100.00
51239;BME280;38154;47.548;18.828;2023-02-12T00:22:00;100033.53;;;2.75;100.00
51239;BME280;38154;47.548;18.828;2023-02-12T00:24:25;100036.75;;;2.87;100.00
51239;BME280;38154;47.548;18.828;2023-02-12T00:26:52;100041.41;;;2.94;100.00
51239;BME280;38154;47.548;18.828;2023-02-12T00:29:18;100047.59;;;2.98;100.00
51239;BME280;38154;47.548;18.828;2023-02-12T00:31:44;100049.22;;;2.96;100.00
51239;BME280;38154;47.548;18.828;2023-02-12T00:34:10;100054.28;;;2.94;100.00
51239;BME280;38154;47.548;18.828;2023-02-12T00:36:36;100060.66;;;3.01;100.00
51239;BME280;38154;47.548;18.828;2023-02-12T00:39:02;100065.00;;;3.02;100.00
51239;BME280;38154;47.548;18.828;2023-02-12T00:41:28;100066.75;;;3.03;100.00
51239;BME280;38154;47.548;18.828;2023-02-12T00:43:54;100059.09;;;3.05;100.00
51239;BME280;38154;47.548;18.828;2023-02-12T00:46:20;100058.72;;;3.13;100.00
51239;BME280;38154;47.548;18.828;2023-02-12T00:48:47;100041.06;;;3.05;100.00
51239;BME280;38154;47.548;18.828;2023-02-12T00:51:13;100057.69;;;2.93;100.00
51239;BME280;38154;47.548;18.828;2023-02-12T00:53:39;100056.22;;;2.82;100.00
51239;BME280;38154;47.548;18.828;2023-02-12T00:56:05;100052.69;;;2.80;100.00
51239;BME280;38154;47.548;18.828;2023-02-12T00:58:31;100064.59;;;2.78;100.00
51239;BME280;38154;47.548;18.828;2023-02-12T01:00:57;100049.78;;;2.74;100.00
51239;BME280;38154;47.548;18.828;2023-02-12T01:03:23;100048.81;;;2.72;100.00
51239;BME280;38154;47.548;18.828;2023-02-12T01:05:50;100041.50;;;2.63;100.00
51239;BME280;38154;47.548;18.828;2023-02-12T01:08:16;100044.69;;;2.59;100.00
51239;BME280;38154;47.548;18.828;2023-02-12T01:10:43;100053.16;;;2.56;100.00
51239;BME280;38154;47.548;18.828;2023-02-12T01:13:11;100055.22;;;2.47;100.00
51239;BME280;38154;47.548;18.828;2023-02-12T01:15:38;100050.66;;;2.41;100.00
51239;BME280;38154;47.548;18.828;2023-02-12T01:18:04;100045.16;;;2.35;100.00
51239;BME280;38154;47.548;18.828;2023-02-12T01:20:30;100030.97;;;2.27;100.00
51239;BME280;38154;47.548;18.828;2023-02-12T01:22:56;100028.06;;;2.21;100.00
51239;BME280;38154;47.548;18.828;2023-02-12T01:25:22;100011.47;;;2.16;100.00
51239;BME280;38154;47.548;18.828;2023-02-12T01:27:52;100014.41;;;2.22;100.00
51239;BME280;38154;47.548;18.828;2023-02-12T01:30:18;100023.34;;;2.29;100.00
51239;BME280;38154;47.548;18.828;2023-02-12T01:32:46;100013.03;;;2.29;100.00
51239;BME280;38154;47.548;18.828;2023-02-12T01:35:12;100010.66;;;2.32;100.00
51239;BME280;38154;47.548;18.828;2023-02-12T01:37:38;100009.59;;;2.28;100.00
51239;BME280;38154;47.548;18.828;2023-02-12T01:40:06;100011.66;;;2.19;100.00
51239;BME280;38154;47.548;18.828;2023-02-12T01:42:32;99999.09;;;2.09;100.00
51239;BME280;38154;47.548;18.828;2023-02-12T01:47:40;100003.66;;;1.98;100.00
51239;BME280;38154;47.548;18.828;2023-02-12T01:50:10;100002.16;;;1.87;100.00
51239;BME280;38154;47.548;18.828;2023-02-12T01:52:38;100013.16;;;1.84;100.00
51239;BME280;38154;47.548;18.828;2023-02-12T01:55:08;100013.16;;;1.84;100.00
51239;BME280;38154;47.548;18.828;2023-02-12T01:57:38;99996.25;;;1.73;100.00
51239;BME280;38154;47.548;18.828;2023-02-12T02:00:08;99992.00;;;1.73;100.00
51239;BME280;38154;47.548;18.828;2023-02-12T02:02:36;99995.44;;;1.74;100.00
51239;BME280;38154;47.548;18.828;2023-02-12T02:05:03;100003.81;;;1.70;100.00
51239;BME280;38154;47.548;18.828;2023-02-12T02:07:29;99995.19;;;1.69;100.00
51239;BME280;38154;47.548;18.828;2023-02-12T02:09:56;99985.97;;;1.73;100.00
51239;BME280;38154;47.548;18.828;2023-02-12T02:12:24;99976.47;;;1.72;100.00
51239;BME280;38154;47.548;18.828;2023-02-12T02:15:09;99989.25;;;1.70;100.00
51239;BME280;38154;47.548;18.828;2023-02-12T02:18:01;99984.91;;;1.69;100.00
51239;BME280;38154;47.548;18.828;2023-02-12T02:34:44;100007.06;;;1.67;100.00
51239;BME280;38154;47.548;18.828;2023-02-12T02:43:03;100024.47;;;1.56;100.00
51239;BME280;38154;47.548;18.828;2023-02-12T02:48:02;100047.94;;;1.62;100.00
51239;BME280;38154;47.548;18.828;2023-02-12T02:50:34;100049.44;;;1.59;100.00
51239;BME280;38154;47.548;18.828;2023-02-12T02:53:10;100046.28;;;1.63;100.00
51239;BME280;38154;47.548;18.828;2023-02-12T02:55:44;100044.50;;;1.62;100.00
51239;BME280;38154;47.548;18.828;2023-02-12T02:58:16;100046.69;;;1.71;100.00
51239;BME280;38154;47.548;18.828;2023-02-12T03:00:48;100051.13;;;1.88;100.00
51239;BME280;38154;47.548;18.828;2023-02-12T03:03:22;100049.53;;;1.90;100.00
51239;BME280;38154;47.548;18.828;2023-02-12T03:05:54;100051.81;;;2.00;100.00
51239;BME280;38154;47.548;18.828;2023-02-12T03:08:46;100050.81;;;2.13;100.00
51239;BME280;38154;47.548;18.828;2023-02-12T03:11:24;100047.84;;;2.22;100.00
51239;BME280;38154;47.548;18.828;2023-02-12T03:19:18;100073.28;;;2.32;100.00
51239;BME280;38154;47.548;18.828;2023-02-12T03:22:17;100078.06;;;2.41;100.00
51239;BME280;38154;47.548;18.828;2023-02-12T03:24:53;100076.47;;;2.43;100.00
51239;BME280;38154;47.548;18.828;2023-02-12T03:27:29;100090.31;;;2.45;100.00
51239;BME280;38154;47.548;18.828;2023-02-12T03:29:57;100085.78;;;2.41;100.00
51239;BME280;38154;47.548;18.828;2023-02-12T03:32:34;100092.44;;;2.37;100.00
51239;BME280;38154;47.548;18.828;2023-02-12T03:35:20;100083.31;;;2.28;100.00
51239;BME280;38154;47.548;18.828;2023-02-12T03:40:42;100069.19;;;2.04;100.00
51239;BME280;38154;47.548;18.828;2023-02-12T03:43:23;100066.38;;;2.00;100.00
51239;BME280;38154;47.548;18.828;2023-02-12T03:45:54;100063.44;;;1.94;100.00
51239;BME280;38154;47.548;18.828;2023-02-12T03:51:04;100075.75;;;1.99;100.00
51239;BME280;38154;47.548;18.828;2023-02-12T03:53:36;100089.94;;;1.93;100.00
51239;BME280;38154;47.548;18.828;2023-02-12T03:56:09;100088.75;;;1.86;100.00
51239;BME280;38154;47.548;18.828;2023-02-12T03:58:37;100093.94;;;1.88;100.00
51239;BME280;38154;47.548;18.828;2023-02-12T04:01:07;100095.44;;;1.84;100.00
51239;BME280;38154;47.548;18.828;2023-02-12T04:03:33;100090.31;;;1.84;100.00
51239;BME280;38154;47.548;18.828;2023-02-12T04:05:59;100101.22;;;1.80;100.00
51239;BME280;38154;47.548;18.828;2023-02-12T04:08:26;100112.41;;;1.80;100.00
51239;BME280;38154;47.548;18.828;2023-02-12T04:11:07;100115.69;;;1.78;100.00
51239;BME280;38154;47.548;18.828;2023-02-12T04:18:52;100120.03;;;1.79;100.00
51239;BME280;38154;47.548;18.828;2023-02-12T04:24:27;100122.16;;;1.86;100.00
51239;BME280;38154;47.548;18.828;2023-02-12T04:27:04;100122.97;;;1.85;100.00
51239;BME280;38154;47.548;18.828;2023-02-12T04:30:16;100128.66;;;1.79;100.00
51239;BME280;38154;47.548;18.828;2023-02-12T04:32:48;100130.38;;;1.65;100.00
51239;BME280;38154;47.548;18.828;2023-02-12T04:40:20;100137.28;;;1.52;100.00
51239;BME280;38154;47.548;18.828;2023-02-12T04:42:51;100141.72;;;1.54;100.00
51239;BME280;38154;47.548;18.828;2023-02-12T04:45:27;100131.87;;;1.47;100.00
51239;BME280;38154;47.548;18.828;2023-02-12T04:47:53;100144.63;;;1.45;100.00
51239;BME280;38154;47.548;18.828;2023-02-12T04:50:19;100158.28;;;1.44;100.00
51239;BME280;38154;47.548;18.828;2023-02-12T04:52:46;100154.47;;;1.38;100.00
51239;BME280;38154;47.548;18.828;2023-02-12T04:55:12;100151.81;;;1.36;100.00
51239;BME280;38154;47.548;18.828;2023-02-12T04:57:38;100156.84;;;1.35;100.00
51239;BME280;38154;47.548;18.828;2023-02-12T05:00:05;100157.19;;;1.26;100.00
51239;BME280;38154;47.548;18.828;2023-02-12T05:02:35;100160.84;;;1.29;100.00
51239;BME280;38154;47.548;18.828;2023-02-12T05:05:01;100167.22;;;1.36;100.00
51239;BME280;38154;47.548;18.828;2023-02-12T05:07:27;100165.72;;;1.40;100.00
51239;BME280;38154;47.548;18.828;2023-02-12T05:09:53;100162.09;;;1.36;100.00
51239;BME280;38154;47.548;18.828;2023-02-12T05:12:19;100156.66;;;1.32;100.00
51239;BME280;38154;47.548;18.828;2023-02-12T05:14:45;100162.78;;;1.34;100.00
51239;BME280;38154;47.548;18.828;2023-02-12T05:17:11;100165.72;;;1.40;100.00
51239;BME280;38154;47.548;18.828;2023-02-12T05:19:36;100172.72;;;1.42;100.00
51239;BME280;38154;47.548;18.828;2023-02-12T05:22:02;100182.03;;;1.40;100.00
51239;BME280;38154;47.548;18.828;2023-02-12T05:24:28;100182.47;;;1.33;100.00
51239;BME280;38154;47.548;18.828;2023-02-12T05:26:54;100184.69;;;1.42;100.00
51239;BME280;38154;47.548;18.828;2023-02-12T05:29:20;100188.41;;;1.47;100.00
51239;BME280;38154;47.548;18.828;2023-02-12T05:31:46;100188.41;;;1.47;100.00
51239;BME280;38154;47.548;18.828;2023-02-12T05:34:12;100200.19;;;1.43;100.00
51239;BME280;38154;47.548;18.828;2023-02-12T05:36:39;100202.53;;;1.54;100.00
51239;BME280;38154;47.548;18.828;2023-02-12T05:39:05;100213.69;;;1.54;100.00
51239;BME280;38154;47.548;18.828;2023-02-12T05:41:32;100221.25;;;1.51;100.00
51239;BME280;38154;47.548;18.828;2023-02-12T05:44:01;100217.94;;;1.54;100.00
51239;BME280;38154;47.548;18.828;2023-02-12T05:46:27;100228.25;;;1.54;100.00
51239;BME280;38154;47.548;18.828;2023-02-12T05:48:53;100232.31;;;1.50;100.00
51239;BME280;38154;47.548;18.828;2023-02-12T05:51:24;100231.69;;;1.54;100.00
51239;BME280;38154;47.548;18.828;2023-02-12T05:53:52;100231.53;;;1.51;100.00
51239;BME280;38154;47.548;18.828;2023-02-12T05:56:22;100240.91;;;1.51;100.00
51239;BME280;38154;47.548;18.828;2023-02-12T05:58:54;100242.69;;;1.52;100.00
51239;BME280;38154;47.548;18.828;2023-02-12T06:01:26;100238.72;;;1.57;100.00
51239;BME280;38154;47.548;18.828;2023-02-12T06:03:52;100238.72;;;1.57;100.00
51239;BME280;38154;47.548;18.828;2023-02-12T06:06:18;100257.37;;;1.54;100.00
51239;BME280;38154;47.548;18.828;2023-02-12T06:08:47;100250.59;;;1.55;100.00
51239;BME280;38154;47.548;18.828;2023-02-12T06:11:14;100249.97;;;1.59;100.00
51239;BME280;38154;47.548;18.828;2023-02-12T06:13:41;100260.34;;;1.60;100.00
51239;BME280;38154;47.548;18.828;2023-02-12T06:16:24;100266.66;;;1.65;100.00
51239;BME280;38154;47.548;18.828;2023-02-12T06:18:51;100269.59;;;1.72;100.00
51239;BME280;38154;47.548;18.828;2023-02-12T06:21:20;100279.00;;;1.71;100.00
51239;BME280;38154;47.548;18.828;2023-02-12T06:23:47;100278.50;;;1.77;100.00
51239;BME280;38154;47.548;18.828;2023-02-12T06:26:14;100285.97;;;1.87;100.00
51239;BME280;38154;47.548;18.828;2023-02-12T06:28:40;100278.34;;;1.89;100.00
51239;BME280;38154;47.548;18.828;2023-02-12T06:33:42;100266.34;;;1.89;100.00
51239;BME280;38154;47.548;18.828;2023-02-12T06:36:08;100271.78;;;1.94;100.00
51239;BME280;38154;47.548;18.828;2023-02-12T06:38:34;100275.69;;;2.02;100.00
51239;BME280;38154;47.548;18.828;2023-02-12T06:41:01;100280.41;;;2.09;100.00
51239;BME280;38154;47.548;18.828;2023-02-12T06:43:27;100272.97;;;2.14;100.00
51239;BME280;38154;47.548;18.828;2023-02-12T06:45:53;100286.50;;;2.25;100.00
51239;BME280;38154;47.548;18.828;2023-02-12T06:48:19;100294.63;;;2.32;100.00
51239;BME280;38154;47.548;18.828;2023-02-12T06:50:45;100298.91;;;2.47;100.00
51239;BME280;38154;47.548;18.828;2023-02-12T06:53:11;100292.38;;;2.98;100.00
51239;BME280;38154;47.548;18.828;2023-02-12T06:55:36;100291.06;;;3.85;100.00
51239;BME280;38154;47.548;18.828;2023-02-12T06:58:02;100295.31;;;4.87;100.00
51239;BME280;38154;47.548;18.828;2023-02-12T07:00:28;100305.66;;;6.17;100.00
51239;BME280;38154;47.548;18.828;2023-02-12T07:02:55;100307.75;;;7.31;100.00
51239;BME280;38154;47.548;18.828;2023-02-12T07:05:22;100318.91;;;8.22;96.99
51239;BME280;38154;47.548;18.828;2023-02-12T07:07:48;100318.91;;;8.98;91.03
51239;BME280;38154;47.548;18.828;2023-02-12T07:10:14;100325.75;;;9.50;84.88
51239;BME280;38154;47.548;18.828;2023-02-12T07:12:40;100323.62;;;9.65;82.37
51239;BME280;38154;47.548;18.828;2023-02-12T07:15:06;100327.03;;;9.93;80.67
51239;BME280;38154;47.548;18.828;2023-02-12T07:17:32;100332.16;;;10.51;77.27
51239;BME280;38154;47.548;18.828;2023-02-12T07:19:58;100337.69;;;10.63;75.65
51239;BME280;38154;47.548;18.828;2023-02-12T07:22:24;100346.03;;;10.83;74.20
51239;BME280;38154;47.548;18.828;2023-02-12T07:24:49;100338.94;;;10.77;73.46
51239;BME280;38154;47.548;18.828;2023-02-12T07:27:16;100343.34;;;11.15;71.78
51239;BME280;38154;47.548;18.828;2023-02-12T07:29:42;100344.03;;;11.46;69.44
51239;BME280;38154;47.548;18.828;2023-02-12T07:32:08;100353.22;;;11.66;68.04
51239;BME280;38154;47.548;18.828;2023-02-12T07:34:34;100361.00;;;11.63;68.27
51239;BME280;38154;47.548;18.828;2023-02-12T07:37:00;100352.25;;;12.01;66.71
51239;BME280;38154;47.548;18.828;2023-02-12T07:39:26;100359.34;;;12.08;65.69
51239;BME280;38154;47.548;18.828;2023-02-12T07:41:52;100355.47;;;12.30;64.74
51239;BME280;38154;47.548;18.828;2023-02-12T07:44:18;100362.00;;;12.52;63.66
51239;BME280;38154;47.548;18.828;2023-02-12T07:46:46;100363.91;;;13.11;61.44
51239;BME280;38154;47.548;18.828;2023-02-12T07:49:18;100364.12;;;13.27;59.90
51239;BME280;38154;47.548;18.828;2023-02-12T07:51:44;100374.16;;;13.51;59.42
51239;BME280;38154;47.548;18.828;2023-02-12T07:54:11;100375.38;;;13.73;58.14
51239;BME280;38154;47.548;18.828;2023-02-12T07:56:38;100374.03;;;14.03;56.93
51239;BME280;38154;47.548;18.828;2023-02-12T07:59:06;100375.87;;;14.12;56.67
51239;BME280;38154;47.548;18.828;2023-02-12T08:01:37;100376.94;;;14.27;54.90
51239;BME280;38154;47.548;18.828;2023-02-12T08:04:11;100379.59;;;14.31;55.26
51239;BME280;38154;47.548;18.828;2023-02-12T08:06:41;100372.34;;;14.88;54.01
51239;BME280;38154;47.548;18.828;2023-02-12T08:09:09;100376.22;;;15.27;51.78
51239;BME280;38154;47.548;18.828;2023-02-12T08:11:37;100384.75;;;15.01;52.16
51239;BME280;38154;47.548;18.828;2023-02-12T08:14:04;100380.25;;;14.89;52.76
51239;BME280;38154;47.548;18.828;2023-02-12T08:16:30;100386.72;;;15.30;51.51
51239;BME280;38154;47.548;18.828;2023-02-12T08:18:57;100386.88;;;15.50;50.11
51239;BME280;38154;47.548;18.828;2023-02-12T08:21:25;100390.25;;;15.29;50.70
51239;BME280;38154;47.548;18.828;2023-02-12T08:23:56;100391.91;;;15.19;51.15
51239;BME280;38154;47.548;18.828;2023-02-12T08:26:24;100401.81;;;15.51;50.01
51239;BME280;38154;47.548;18.828;2023-02-12T08:31:35;100398.97;;;15.25;51.05
51239;BME280;38154;47.548;18.828;2023-02-12T08:34:01;100403.44;;;15.38;50.02
51239;BME280;38154;47.548;18.828;2023-02-12T08:36:30;100416.22;;;16.04;48.83
51239;BME280;38154;47.548;18.828;2023-02-12T08:38:57;100416.34;;;16.35;47.59
51239;BME280;38154;47.548;18.828;2023-02-12T08:41:26;100415.50;;;16.36;47.15
51239;BME280;38154;47.548;18.828;2023-02-12T08:43:55;100418.00;;;16.12;47.52
51239;BME280;38154;47.548;18.828;2023-02-12T08:46:24;100418.16;;;16.48;46.88
51239;BME280;38154;47.548;18.828;2023-02-12T08:48:52;100415.44;;;16.29;47.01
51239;BME280;38154;47.548;18.828;2023-02-12T08:51:22;100418.09;;;16.37;46.92
51239;BME280;38154;47.548;18.828;2023-02-12T08:53:52;100423.44;;;16.56;46.33
51239;BME280;38154;47.548;18.828;2023-02-12T08:56:18;100445.44;;;16.72;45.96
51239;BME280;38154;47.548;18.828;2023-02-12T08:58:45;100442.06;;;17.40;44.14
51239;BME280;38154;47.548;18.828;2023-02-12T09:01:14;100451.72;;;17.11;44.71
51239;BME280;38154;47.548;18.828;2023-02-12T09:03:41;100455.25;;;17.30;44.42
51239;BME280;38154;47.548;18.828;2023-02-12T09:06:07;100460.53;;;17.79;43.70
51239;BME280;38154;47.548;18.828;2023-02-12T09:08:34;100468.44;;;18.02;42.41
51239;BME280;38154;47.548;18.828;2023-02-12T09:11:12;100467.53;;;18.15;41.75
51239;BME280;38154;47.548;18.828;2023-02-12T09:13:39;100472.84;;;17.80;42.73
51239;BME280;38154;47.548;18.828;2023-02-12T09:16:06;100464.03;;;17.86;42.38
51239;BME280;38154;47.548;18.828;2023-02-12T09:18:32;100463.16;;;17.91;43.01
51239;BME280;38154;47.548;18.828;2023-02-12T09:21:04;100465.75;;;18.21;42.00
51239;BME280;38154;47.548;18.828;2023-02-12T09:23:31;100472.75;;;18.31;41.42
51239;BME280;38154;47.548;18.828;2023-02-12T09:25:57;100469.31;;;18.10;41.92
51239;BME280;38154;47.548;18.828;2023-02-12T09:28:23;100479.81;;;18.29;40.90
51239;BME280;38154;47.548;18.828;2023-02-12T09:30:48;100481.59;;;18.27;41.89
51239;BME280;38154;47.548;18.828;2023-02-12T09:33:15;100489.34;;;18.84;40.09
51239;BME280;38154;47.548;18.828;2023-02-12T09:35:40;100486.78;;;18.48;40.77
51239;BME280;38154;47.548;18.828;2023-02-12T09:38:07;100490.44;;;18.01;41.41
51239;BME280;38154;47.548;18.828;2023-02-12T09:43:33;100494.84;;;17.97;41.56
51239;BME280;38154;47.548;18.828;2023-02-12T09:51:48;100500.12;;;17.65;41.71
51239;BME280;38154;47.548;18.828;2023-02-12T09:54:20;100497.44;;;17.27;42.49
51239;BME280;38154;47.548;18.828;2023-02-12T09:56:54;100501.84;;;17.34;43.20
51239;BME280;38154;47.548;18.828;2023-02-12T09:59:32;100507.13;;;17.35;43.31
51239;BME280;38154;47.548;18.828;2023-02-12T10:01:59;100502.75;;;17.70;42.42
51239;BME280;38154;47.548;18.828;2023-02-12T10:04:27;100508.00;;;17.73;41.73
51239;BME280;38154;47.548;18.828;2023-02-12T10:07:06;100513.91;;;16.67;44.88
51239;BME280;38154;47.548;18.828;2023-02-12T10:10:02;100505.03;;;16.45;45.19
51239;BME280;38154;47.548;18.828;2023-02-12T10:15:22;100522.09;;;17.50;43.03
51239;BME280;38154;47.548;18.828;2023-02-12T10:26:29;100525.88;;;16.11;46.13
51239;BME280;38154;47.548;18.828;2023-02-12T10:29:08;100529.09;;;15.74;46.31
51239;BME280;38154;47.548;18.828;2023-02-12T10:31:38;100528.84;;;14.69;49.61
51239;BME280;38154;47.548;18.828;2023-02-12T10:34:29;100527.59;;;13.85;51.84
51239;BME280;38154;47.548;18.828;2023-02-12T10:37:25;100529.69;;;13.07;54.63
51239;BME280;38154;47.548;18.828;2023-02-12T10:39:59;100531.03;;;12.87;56.32
51239;BME280;38154;47.548;18.828;2023-02-12T10:45:02;100520.62;;;12.09;58.72
51239;BME280;38154;47.548;18.828;2023-02-12T10:47:28;100524.53;;;12.28;59.75
51239;BME280;38154;47.548;18.828;2023-02-12T10:49:57;100529.75;;;12.66;58.82
51239;BME280;38154;47.548;18.828;2023-02-12T10:52:38;100525.72;;;13.28;57.94
51239;BME280;38154;47.548;18.828;2023-02-12T10:55:29;100510.25;;;13.94;55.63
51239;BME280;38154;47.548;18.828;2023-02-12T10:57:56;100519.25;;;14.71;52.42
51239;BME280;38154;47.548;18.828;2023-02-12T11:03:20;100528.97;;;16.86;45.50
51239;BME280;38154;47.548;18.828;2023-02-12T11:05:47;100527.25;;;17.07;44.37
51239;BME280;38154;47.548;18.828;2023-02-12T11:08:28;100529.50;;;16.28;44.95
51239;BME280;38154;47.548;18.828;2023-02-12T11:11:05;100522.75;;;15.52;47.82
51239;BME280;38154;47.548;18.828;2023-02-12T11:13:31;100527.97;;;14.68;49.44
51239;BME280;38154;47.548;18.828;2023-02-12T11:15:57;100529.38;;;14.43;50.22
51239;BME280;38154;47.548;18.828;2023-02-12T11:18:27;100532.03;;;15.16;48.79
51239;BME280;38154;47.548;18.828;2023-02-12T11:26:02;100528.81;;;16.62;44.50
51239;BME280;38154;47.548;18.828;2023-02-12T11:28:29;100532.41;;;16.76;43.61
51239;BME280;38154;47.548;18.828;2023-02-12T11:33:33;100519.47;;;18.03;41.48
51239;BME280;38154;47.548;18.828;2023-02-12T11:38:48;100525.47;;;16.95;42.52
51239;BME280;38154;47.548;18.828;2023-02-12T11:41:33;100527.31;;;17.19;41.42
51239;BME280;38154;47.548;18.828;2023-02-12T11:47:07;100522.53;;;16.37;44.15
51239;BME280;38154;47.548;18.828;2023-02-12T11:52:35;100520.56;;;16.03;44.89
51239;BME280;38154;47.548;18.828;2023-02-12T11:55:07;100524.19;;;15.21;46.64
51239;BME280;38154;47.548;18.828;2023-02-12T11:57:48;100528.22;;;14.88;46.90
51239;BME280;38154;47.548;18.828;2023-02-12T12:02:52;100520.91;;;14.06;49.26
51239;BME280;38154;47.548;18.828;2023-02-12T12:05:21;100513.66;;;13.34;50.38
51239;BME280;38154;47.548;18.828;2023-02-12T12:07:57;100529.81;;;12.69;52.23
51239;BME280;38154;47.548;18.828;2023-02-12T12:10:36;100525.16;;;12.16;54.24
51239;BME280;38154;47.548;18.828;2023-02-12T12:13:14;100526.03;;;11.80;56.06
51239;BME280;38154;47.548;18.828;2023-02-12T12:15:45;100519.59;;;11.67;55.80
51239;BME280;38154;47.548;18.828;2023-02-12T12:18:39;100518.97;;;11.78;56.75
51239;BME280;38154;47.548;18.828;2023-02-12T12:22:10;100508.44;;;12.10;56.97
51239;BME280;38154;47.548;18.828;2023-02-12T12:24:38;100493.88;;;12.21;55.26
51239;BME280;38154;47.548;18.828;2023-02-12T12:27:30;100503.75;;;12.34;55.56
51239;BME280;38154;47.548;18.828;2023-02-12T12:33:04;100500.00;;;11.85;55.13
51239;BME280;38154;47.548;18.828;2023-02-12T12:35:42;100490.94;;;11.70;55.72
51239;BME280;38154;47.548;18.828;2023-02-12T12:38:29;100487.38;;;11.67;56.39
51239;BME280;38154;47.548;18.828;2023-02-12T12:41:07;100484.84;;;11.35;57.56
51239;BME280;38154;47.548;18.828;2023-02-12T12:43:42;100488.84;;;11.22;58.04
51239;BME280;38154;47.548;18.828;2023-02-12T12:49:42;100489.00;;;11.28;58.28
51239;BME280;38154;47.548;18.828;2023-02-12T12:57:49;100493.59;;;11.37;57.74
51239;BME280;38154;47.548;18.828;2023-02-12T13:06:20;100490.19;;;10.74;58.97
51239;BME280;38154;47.548;18.828;2023-02-12T13:11:51;100491.41;;;10.57;60.22
51239;BME280;38154;47.548;18.828;2023-02-12T13:17:04;100489.56;;;10.53;60.42
51239;BME280;38154;47.548;18.828;2023-02-12T13:22:20;100492.38;;;10.61;60.46
51239;BME280;38154;47.548;18.828;2023-02-12T13:27:29;100493.22;;;10.60;59.40
51239;BME280;38154;47.548;18.828;2023-02-12T13:30:04;100493.22;;;10.60;59.78
51239;BME280;38154;47.548;18.828;2023-02-12T13:32:37;100494.53;;;10.45;60.70
51239;BME280;38154;47.548;18.828;2023-02-12T13:35:06;100493.66;;;10.45;60.68
51239;BME280;38154;47.548;18.828;2023-02-12T13:37:37;100501.00;;;10.29;61.28
51239;BME280;38154;47.548;18.828;2023-02-12T13:40:07;100495.78;;;10.29;60.67
51239;BME280;38154;47.548;18.828;2023-02-12T13:45:33;100504.22;;;10.22;60.56
51239;BME280;38154;47.548;18.828;2023-02-12T13:51:00;100507.41;;;10.12;60.16
51239;BME280;38154;47.548;18.828;2023-02-12T13:53:46;100500.34;;;10.08;60.40
51239;BME280;38154;47.548;18.828;2023-02-12T14:04:37;100513.00;;;9.97;59.91
51239;BME280;38154;47.548;18.828;2023-02-12T14:07:07;100511.84;;;9.87;59.90
51239;BME280;38154;47.548;18.828;2023-02-12T14:09:43;100507.84;;;9.71;60.32
51239;BME280;38154;47.548;18.828;2023-02-12T14:12:27;100506.81;;;9.66;59.99
51239;BME280;38154;47.548;18.828;2023-02-12T14:15:07;100519.44;;;9.54;60.00
51239;BME280;38154;47.548;18.828;2023-02-12T14:20:20;100517.41;;;9.19;61.35
51239;BME280;38154;47.548;18.828;2023-02-12T14:27:55;100515.28;;;8.83;61.96
51239;BME280;38154;47.548;18.828;2023-02-12T14:30:34;100516.59;;;8.72;62.05
51239;BME280;38154;47.548;18.828;2023-02-12T14:38:01;100520.31;;;8.33;64.39
51239;BME280;38154;47.548;18.828;2023-02-12T14:43:22;100530.34;;;8.24;64.45
51239;BME280;38154;47.548;18.828;2023-02-12T14:45:48;100532.13;;;8.25;62.01
51239;BME280;38154;47.548;18.828;2023-02-12T14:48:38;100536.19;;;8.18;61.44
51239;BME280;38154;47.548;18.828;2023-02-12T14:51:04;100530.88;;;8.15;61.64
51239;BME280;38154;47.548;18.828;2023-02-12T14:53:34;100536.47;;;8.04;62.13
51239;BME280;38154;47.548;18.828;2023-02-12T14:56:02;100538.66;;;7.93;62.48
51239;BME280;38154;47.548;18.828;2023-02-12T14:58:30;100537.44;;;7.85;63.02
51239;BME280;38154;47.548;18.828;2023-02-12T15:00:58;100533.25;;;7.88;64.45
51239;BME280;38154;47.548;18.828;2023-02-12T15:03:51;100531.34;;;7.84;64.25
51239;BME280;38154;47.548;18.828;2023-02-12T15:06:37;100531.13;;;7.78;65.42
51239;BME280;38154;47.548;18.828;2023-02-12T15:09:20;100541.63;;;7.60;66.60
51239;BME280;38154;47.548;18.828;2023-02-12T15:11:57;100542.13;;;7.51;68.49
51239;BME280;38154;47.548;18.828;2023-02-12T15:14:34;100539.47;;;7.50;67.24
51239;BME280;38154;47.548;18.828;2023-02-12T15:17:07;100537.75;;;7.50;66.94
51239;BME280;38154;47.548;18.828;2023-02-12T15:19:49;100538.59;;;7.49;66.99
51239;BME280;38154;47.548;18.828;2023-02-12T15:22:22;100540.22;;;7.47;66.93
51239;BME280;38154;47.548;18.828;2023-02-12T15:24:49;100541.78;;;7.43;67.05
51239;BME280;38154;47.548;18.828;2023-02-12T15:27:16;100538.87;;;7.36;67.97
51239;BME280;38154;47.548;18.828;2023-02-12T15:29:52;100550.66;;;7.28;68.20
51239;BME280;38154;47.548;18.828;2023-02-12T15:32:23;100544.09;;;7.16;68.03
51239;BME280;38154;47.548;18.828;2023-02-12T15:34:50;100537.22;;;6.97;69.14